Time;durP1;ratioP1;P1;durP2;ratioP2;P2;SDS_P1;SDS_P2;PMS_P1;PMS_P2;Temp;Humidity;BMP_temperature;BMP_pressure;BME280_temperature;BME280_humidity;BME280_pressure;Samples;Min_cycle;Max_cycle;Signal;HPM_P1;HPM_P2
2023/09/21 00:00:47;;;;;;;2.17;1.70;;;18.80;64.10;;;;;;4973741;28;20094;-83
2023/09/21 00:03:12;;;;;;;4.13;2.10;;;18.70;64.10;;;;;;4955577;28;20464;-82
2023/09/21 00:05:42;;;;;;;2.42;2.05;;;18.70;64.00;;;;;;4973209;28;20089;-84
2023/09/21 00:08:09;;;;;;;4.40;1.90;;;18.70;64.10;;;;;;4972210;28;20092;-86
2023/09/21 00:10:35;;;;;;;2.22;1.65;;;18.80;64.10;;;;;;4972010;28;20387;-81
2023/09/21 00:13:02;;;;;;;2.03;1.52;;;18.80;64.30;;;;;;4972077;28;20030;-84
2023/09/21 00:15:31;;;;;;;2.45;2.05;;;18.80;64.10;;;;;;4971708;28;20031;-75
2023/09/21 00:17:58;;;;;;;2.53;1.80;;;18.80;64.10;;;;;;4971413;28;20042;-86
2023/09/21 00:20:29;;;;;;;2.55;1.90;;;18.80;64.50;;;;;;4972954;28;20030;-76
2023/09/21 00:22:55;;;;;;;2.60;2.00;;;18.70;64.60;;;;;;4956191;28;20050;-83
2023/09/21 00:25:23;;;;;;;5.22;2.20;;;18.60;64.90;;;;;;4971821;28;20406;-85
2023/09/21 00:27:49;;;;;;;2.22;1.70;;;18.50;65.20;;;;;;4984210;28;20129;-80
2023/09/21 00:30:15;;;;;;;4.13;2.00;;;18.40;66.20;;;;;;4975475;28;20022;-83
2023/09/21 00:32:41;;;;;;;3.17;2.00;;;18.30;66.80;;;;;;4972982;28;20031;-86
2023/09/21 00:35:09;;;;;;;2.55;2.03;;;18.20;66.90;;;;;;4972845;28;20092;-81
2023/09/21 00:37:39;;;;;;;3.00;2.30;;;18.20;67.00;;;;;;4972305;28;20027;-81
2023/09/21 00:40:25;;;;;;;3.50;2.03;;;18.20;67.10;;;;;;4972934;28;20410;-80
2023/09/21 00:42:52;;;;;;;4.28;2.10;;;18.20;67.00;;;;;;4971271;28;20039;-84
2023/09/21 00:45:20;;;;;;;3.38;1.90;;;18.30;67.20;;;;;;4971428;28;20090;-82
2023/09/21 00:47:49;;;;;;;2.88;1.70;;;18.30;67.00;;;;;;4971558;28;20061;-85
2023/09/21 00:50:20;;;;;;;3.20;2.15;;;18.40;66.80;;;;;;4971362;28;20023;-85
2023/09/21 00:52:53;;;;;;;5.18;1.73;;;18.40;66.80;;;;;;4971364;28;20041;-84
2023/09/21 00:55:38;;;;;;;3.75;2.22;;;18.30;67.10;;;;;;4971736;28;20088;-76
2023/09/21 00:58:04;;;;;;;3.10;1.90;;;18.30;67.10;;;;;;4971362;28;20556;-87
2023/09/21 01:00:31;;;;;;;3.33;1.90;;;18.30;67.10;;;;;;4971264;28;20026;-79
2023/09/21 01:03:07;;;;;;;2.25;1.80;;;18.30;67.20;;;;;;4971120;28;20031;-86
2023/09/21 01:05:34;;;;;;;3.05;1.83;;;18.30;67.10;;;;;;4971246;28;20022;-82
2023/09/21 01:08:00;;;;;;;4.13;2.03;;;18.30;67.10;;;;;;4971131;28;20035;-88
2023/09/21 01:10:27;;;;;;;4.28;2.08;;;18.30;67.30;;;;;;4971692;28;20030;-87
2023/09/21 01:12:53;;;;;;;3.42;2.15;;;18.20;67.30;;;;;;4971463;28;20027;-87
2023/09/21 01:15:20;;;;;;;2.97;1.80;;;18.20;67.50;;;;;;4971891;28;20392;-84
2023/09/21 01:17:47;;;;;;;3.78;2.30;;;18.20;67.90;;;;;;4971667;28;20137;-88
2023/09/21 01:20:22;;;;;;;4.95;2.25;;;18.20;68.00;;;;;;4971657;28;20113;-83
2023/09/21 01:23:17;;;;;;;3.63;2.00;;;18.10;68.80;;;;;;4971044;28;20027;-84
2023/09/21 01:25:44;;;;;;;3.20;2.00;;;18.10;68.30;;;;;;4969897;28;20030;-83
2023/09/21 01:28:12;;;;;;;4.78;2.20;;;18.10;68.20;;;;;;4970796;28;20043;-84
2023/09/21 01:30:39;;;;;;;2.35;1.80;;;18.10;68.20;;;;;;4971593;28;20529;-78
2023/09/21 01:33:11;;;;;;;5.55;2.08;;;18.10;68.30;;;;;;4972283;28;20076;-79
2023/09/21 01:35:37;;;;;;;4.07;2.00;;;18.10;68.50;;;;;;4971965;28;20031;-77
2023/09/21 01:38:06;;;;;;;4.18;2.00;;;18.10;68.70;;;;;;4971109;28;20030;-78
2023/09/21 01:40:35;;;;;;;3.53;2.00;;;18.00;68.70;;;;;;4970324;28;20031;-80
2023/09/21 01:43:08;;;;;;;4.13;2.10;;;18.00;68.90;;;;;;4969992;28;20121;-77
2023/09/21 01:45:40;;;;;;;2.55;2.08;;;18.00;69.00;;;;;;4970138;28;20066;-81
2023/09/21 01:48:14;;;;;;;8.93;2.28;;;18.00;68.90;;;;;;4970310;28;20035;-79
2023/09/21 01:50:44;;;;;;;3.20;2.05;;;18.00;69.10;;;;;;4970987;28;20050;-78
2023/09/21 01:53:21;;;;;;;3.97;2.08;;;17.90;69.30;;;;;;4970520;28;20118;-78
2023/09/21 01:55:49;;;;;;;4.57;2.15;;;17.80;69.70;;;;;;4954432;28;20502;-78
2023/09/21 01:58:19;;;;;;;3.60;2.10;;;17.70;70.30;;;;;;4970160;28;20037;-77
2023/09/21 02:00:46;;;;;;;2.88;2.00;;;17.70;70.40;;;;;;4970005;28;20081;-78
2023/09/21 02:03:14;;;;;;;6.28;2.10;;;17.60;70.70;;;;;;4969587;28;20031;-81
2023/09/21 02:05:40;;;;;;;3.10;2.40;;;17.60;71.00;;;;;;4970080;28;20393;-87
2023/09/21 02:08:08;;;;;;;5.25;2.40;;;17.60;71.20;;;;;;4969990;28;20487;-79
2023/09/21 02:10:38;;;;;;;6.93;2.22;;;17.60;71.30;;;;;;4969256;28;20439;-75
2023/09/21 02:13:05;;;;;;;5.53;2.33;;;17.60;71.50;;;;;;4969907;28;20092;-81
2023/09/21 02:15:34;;;;;;;3.28;1.77;;;17.50;71.80;;;;;;4969926;28;20066;-84
2023/09/21 02:18:02;;;;;;;3.60;2.17;;;17.50;71.80;;;;;;4969328;28;20042;-79
2023/09/21 02:20:29;;;;;;;5.30;2.70;;;17.50;71.70;;;;;;4969658;28;20109;-76
2023/09/21 02:23:00;;;;;;;4.88;3.70;;;17.50;71.70;;;;;;4970590;28;20031;-76
2023/09/21 02:25:27;;;;;;;8.13;6.63;;;17.40;71.90;;;;;;4969831;28;20033;-76
2023/09/21 02:27:53;;;;;;;11.13;5.35;;;17.40;71.90;;;;;;4969567;28;20525;-78
2023/09/21 02:30:21;;;;;;;5.03;3.63;;;17.40;72.00;;;;;;4970120;28;20027;-77
2023/09/21 02:32:51;;;;;;;5.20;2.40;;;17.40;71.80;;;;;;4973061;28;20387;-74
2023/09/21 02:35:26;;;;;;;3.60;2.05;;;17.40;71.60;;;;;;4972211;28;20019;-78
2023/09/21 02:37:53;;;;;;;3.17;2.08;;;17.40;71.40;;;;;;4957259;28;20463;-78
2023/09/21 02:40:20;;;;;;;3.40;2.03;;;17.40;71.30;;;;;;4972556;28;20065;-75
2023/09/21 02:42:54;;;;;;;3.08;2.17;;;17.50;71.30;;;;;;4972293;28;20038;-76
2023/09/21 02:45:25;;;;;;;3.00;2.08;;;17.60;70.90;;;;;;4972782;28;20088;-82
2023/09/21 02:47:54;;;;;;;3.22;2.20;;;17.60;70.80;;;;;;4973200;28;20126;-81
2023/09/21 02:50:22;;;;;;;2.60;2.13;;;17.60;70.70;;;;;;4972366;28;20096;-77
2023/09/21 02:52:55;;;;;;;3.83;2.28;;;17.60;70.70;;;;;;4973065;28;20034;-75
2023/09/21 02:55:22;;;;;;;2.13;1.88;;;17.60;71.80;;;;;;4972697;28;20027;-74
2023/09/21 02:57:55;;;;;;;3.70;1.98;;;17.60;71.10;;;;;;4972449;28;20467;-74
2023/09/21 03:00:29;;;;;;;3.00;2.20;;;17.60;71.30;;;;;;4972189;28;20023;-75
2023/09/21 03:03:00;;;;;;;4.05;2.20;;;17.50;71.90;;;;;;4972424;28;20027;-79
2023/09/21 03:05:27;;;;;;;3.15;1.90;;;17.50;71.80;;;;;;4971983;28;20061;-76
2023/09/21 03:07:54;;;;;;;4.35;2.50;;;17.50;72.10;;;;;;4972134;28;20172;-76
2023/09/21 03:10:20;;;;;;;2.85;2.25;;;17.50;72.50;;;;;;4972328;28;20027;-75
2023/09/21 03:12:51;;;;;;;4.97;2.22;;;17.50;72.70;;;;;;4972143;28;20023;-75
2023/09/21 03:15:20;;;;;;;5.28;2.80;;;17.40;72.90;;;;;;4972529;28;20023;-76
2023/09/21 03:17:49;;;;;;;4.25;2.30;;;17.40;73.10;;;;;;4971497;28;20059;-76
2023/09/21 03:20:32;;;;;;;3.25;2.38;;;17.40;73.30;;;;;;4972355;28;20058;-76
2023/09/21 03:23:04;;;;;;;3.47;2.70;;;17.30;73.40;;;;;;4971902;28;20479;-78
2023/09/21 03:25:33;;;;;;;4.28;2.33;;;17.40;73.30;;;;;;4972164;28;20054;-77
2023/09/21 03:28:06;;;;;;;3.80;2.75;;;17.40;73.30;;;;;;4971840;28;20035;-75
2023/09/21 03:30:32;;;;;;;5.63;2.40;;;17.40;73.30;;;;;;4972033;28;20023;-75
2023/09/21 03:32:58;;;;;;;4.35;2.15;;;17.40;73.30;;;;;;4971875;28;20053;-75
2023/09/21 03:35:26;;;;;;;3.30;2.30;;;17.40;73.00;;;;;;4972652;28;20490;-75
2023/09/21 03:37:53;;;;;;;4.43;2.10;;;17.50;72.90;;;;;;4975982;28;20465;-78
2023/09/21 03:40:19;;;;;;;7.60;2.20;;;17.50;72.90;;;;;;4981223;28;20035;-74
2023/09/21 03:42:45;;;;;;;2.97;2.00;;;17.50;73.30;;;;;;4971600;28;20399;-75
2023/09/21 03:45:15;;;;;;;6.18;2.60;;;17.40;73.40;;;;;;4971816;28;20471;-75
2023/09/21 03:47:42;;;;;;;6.05;2.20;;;17.40;73.40;;;;;;4971763;28;20035;-79
2023/09/21 03:50:12;;;;;;;2.67;2.10;;;17.40;73.50;;;;;;4971888;28;20113;-79
2023/09/21 03:52:38;;;;;;;4.28;2.53;;;17.40;73.80;;;;;;4971458;28;20027;-77
2023/09/21 03:55:07;;;;;;;3.83;2.50;;;17.30;74.20;;;;;;4971415;28;20133;-78
2023/09/21 03:57:33;;;;;;;3.85;2.22;;;17.20;74.40;;;;;;4971255;28;20027;-75
2023/09/21 03:59:59;;;;;;;5.53;2.30;;;17.20;74.70;;;;;;4971542;28;20030;-76
2023/09/21 04:02:25;;;;;;;6.53;2.20;;;17.20;74.90;;;;;;4972103;28;20035;-76
2023/09/21 04:04:52;;;;;;;3.25;2.05;;;17.20;75.10;;;;;;4971498;28;20041;-75
2023/09/21 04:07:19;;;;;;;6.80;2.00;;;17.20;75.40;;;;;;4971140;28;20034;-75
2023/09/21 04:09:45;;;;;;;3.30;2.20;;;17.20;75.20;;;;;;4971328;28;20034;-76
2023/09/21 04:12:11;;;;;;;4.35;2.20;;;17.20;75.50;;;;;;4971292;28;20034;-76
2023/09/21 04:14:38;;;;;;;3.38;2.20;;;17.20;75.80;;;;;;4971059;28;20023;-76
2023/09/21 04:17:04;;;;;;;3.63;2.30;;;17.20;76.00;;;;;;4970675;28;20042;-77
2023/09/21 04:19:29;;;;;;;4.03;2.08;;;17.20;76.30;;;;;;4971204;28;20050;-77
2023/09/21 04:21:55;;;;;;;4.57;2.75;;;17.10;76.50;;;;;;4971059;28;20027;-76
2023/09/21 04:24:21;;;;;;;4.78;1.88;;;17.10;76.80;;;;;;4970984;28;20104;-75
2023/09/21 04:26:46;;;;;;;3.90;2.30;;;17.00;77.10;;;;;;4954541;28;20023;-76
2023/09/21 04:29:12;;;;;;;2.72;2.20;;;17.10;77.30;;;;;;4971167;28;20433;-76
2023/09/21 04:31:38;;;;;;;3.35;2.35;;;17.00;77.40;;;;;;4970713;28;20019;-78
2023/09/21 04:34:04;;;;;;;5.35;2.70;;;17.00;77.30;;;;;;4971042;28;20119;-75
2023/09/21 04:36:30;;;;;;;8.63;2.17;;;17.00;77.30;;;;;;4971243;28;20126;-79
2023/09/21 04:38:57;;;;;;;3.50;2.38;;;17.00;77.20;;;;;;4954911;28;20498;-75
2023/09/21 04:41:23;;;;;;;4.65;2.28;;;17.00;77.40;;;;;;4972302;28;20383;-75
2023/09/21 04:43:49;;;;;;;3.78;2.28;;;17.00;77.60;;;;;;4971146;28;20455;-74
2023/09/21 04:46:17;;;;;;;4.32;2.15;;;17.00;77.90;;;;;;4970897;28;20046;-76
2023/09/21 04:48:42;;;;;;;5.47;2.80;;;16.90;78.00;;;;;;4970818;28;20039;-76
2023/09/21 04:51:12;;;;;;;4.22;2.40;;;16.90;78.50;;;;;;4970725;28;20023;-76
2023/09/21 04:53:38;;;;;;;6.28;2.30;;;16.90;78.70;;;;;;4970366;28;20478;-77
2023/09/21 04:56:04;;;;;;;6.00;2.30;;;16.90;78.70;;;;;;4971256;28;20407;-75
2023/09/21 04:58:29;;;;;;;5.38;2.42;;;16.90;78.60;;;;;;4954870;28;20031;-75
2023/09/21 05:00:55;;;;;;;6.00;3.33;;;16.90;78.60;;;;;;4970642;28;20418;-76
2023/09/21 05:03:20;;;;;;;8.98;2.47;;;16.90;78.40;;;;;;4970122;28;20602;-77
2023/09/21 05:05:47;;;;;;;5.57;2.53;;;16.90;78.30;;;;;;4970676;28;20023;-77
2023/09/21 05:08:13;;;;;;;5.65;2.35;;;17.00;78.20;;;;;;4970838;28;20042;-76
2023/09/21 05:10:40;;;;;;;7.22;3.05;;;16.90;78.60;;;;;;4970178;28;20577;-76
2023/09/21 05:13:06;;;;;;;3.53;2.40;;;16.90;78.70;;;;;;4970557;28;20038;-77
2023/09/21 05:15:32;;;;;;;3.78;2.80;;;16.90;79.40;;;;;;4970315;28;20027;-78
2023/09/21 05:17:57;;;;;;;4.82;2.50;;;16.90;78.50;;;;;;4970177;28;20062;-76
2023/09/21 05:20:23;;;;;;;4.72;2.97;;;16.90;78.60;;;;;;4970400;28;20027;-76
2023/09/21 05:22:48;;;;;;;4.90;2.90;;;16.90;78.90;;;;;;4979306;28;20037;-76
2023/09/21 05:25:14;;;;;;;5.20;3.65;;;16.80;79.10;;;;;;5071468;28;20032;-78
2023/09/21 05:27:43;;;;;;;4.65;3.20;;;16.90;79.40;;;;;;5054160;28;20070;-79
2023/09/21 05:30:09;;;;;;;5.93;3.03;;;16.80;79.60;;;;;;5055330;28;20025;-78
2023/09/21 05:32:35;;;;;;;6.22;3.28;;;16.90;79.70;;;;;;5071552;28;20060;-76
2023/09/21 05:35:02;;;;;;;4.97;3.35;;;16.80;79.70;;;;;;5071555;28;20086;-78
2023/09/21 05:37:29;;;;;;;4.28;3.33;;;16.80;79.80;;;;;;5071084;28;20406;-78
2023/09/21 05:39:54;;;;;;;4.97;2.90;;;16.90;79.90;;;;;;5071821;28;20040;-84
2023/09/21 05:42:23;;;;;;;4.90;3.28;;;16.90;80.80;;;;;;5071832;28;20029;-79
2023/09/21 05:44:49;;;;;;;8.40;3.50;;;17.00;79.90;;;;;;5071584;28;20065;-75
2023/09/21 05:47:15;;;;;;;6.07;3.45;;;17.10;79.50;;;;;;5075174;28;20484;-78
2023/09/21 05:49:44;;;;;;;6.63;3.38;;;17.10;78.90;;;;;;5075117;28;20121;-77
2023/09/21 05:52:12;;;;;;;7.25;3.50;;;17.20;78.60;;;;;;5074056;28;20024;-74
2023/09/21 05:54:44;;;;;;;5.35;3.33;;;17.20;78.50;;;;;;5055248;28;20028;-77
2023/09/21 05:57:11;;;;;;;7.43;3.28;;;17.20;79.10;;;;;;5071608;28;20099;-78
2023/09/21 05:59:37;;;;;;;5.13;3.33;;;17.10;79.40;;;;;;5055028;28;20119;-78
2023/09/21 06:02:05;;;;;;;5.10;3.40;;;17.10;79.50;;;;;;5071171;28;20079;-76
2023/09/21 06:04:31;;;;;;;5.13;3.30;;;17.00;79.70;;;;;;5071729;28;20112;-77
2023/09/21 06:06:58;;;;;;;4.93;3.38;;;16.90;80.30;;;;;;5058076;28;20230;-77
2023/09/21 06:09:24;;;;;;;4.75;3.47;;;16.80;80.40;;;;;;5075033;28;20036;-76
2023/09/21 06:11:51;;;;;;;5.03;3.25;;;16.80;80.50;;;;;;5075448;28;20538;-76
2023/09/21 06:14:18;;;;;;;4.47;3.20;;;16.80;80.30;;;;;;5075107;28;20029;-75
2023/09/21 06:16:45;;;;;;;4.35;3.33;;;16.80;80.20;;;;;;5074919;28;20485;-75
2023/09/21 06:19:11;;;;;;;4.25;2.90;;;16.80;80.20;;;;;;5075243;28;20039;-75
2023/09/21 06:21:40;;;;;;;5.10;2.97;;;16.90;80.00;;;;;;5075102;28;20028;-76
2023/09/21 06:24:07;;;;;;;4.03;2.78;;;17.00;79.60;;;;;;5075023;28;20464;-75
2023/09/21 06:26:33;;;;;;;3.80;2.40;;;17.10;79.50;;;;;;5075018;28;20027;-76
2023/09/21 06:28:59;;;;;;;5.95;2.95;;;17.10;79.40;;;;;;5074944;28;20048;-75
2023/09/21 06:31:25;;;;;;;5.60;2.65;;;17.20;79.00;;;;;;5074774;28;20025;-75
2023/09/21 06:33:53;;;;;;;4.28;2.90;;;17.20;78.70;;;;;;5074550;28;20112;-75
2023/09/21 06:36:20;;;;;;;3.58;2.42;;;17.40;78.40;;;;;;5074330;28;20028;-75
2023/09/21 06:38:47;;;;;;;3.78;2.63;;;17.40;78.20;;;;;;5074696;28;20032;-75
2023/09/21 06:41:13;;;;;;;3.47;2.83;;;17.50;77.90;;;;;;5074557;28;20028;-75
2023/09/21 06:43:42;;;;;;;5.07;2.83;;;17.50;77.70;;;;;;5074593;28;20074;-75
2023/09/21 06:46:08;;;;;;;6.10;2.70;;;17.50;77.50;;;;;;5074654;28;20048;-75
2023/09/21 06:48:33;;;;;;;6.32;2.72;;;17.50;77.70;;;;;;5074307;28;20111;-76
2023/09/21 06:50:59;;;;;;;5.65;2.60;;;17.60;77.40;;;;;;5075752;28;20456;-76
2023/09/21 06:53:25;;;;;;;3.20;2.30;;;17.60;77.20;;;;;;5075139;28;20032;-76
2023/09/21 06:55:51;;;;;;;4.85;2.35;;;17.60;77.00;;;;;;5074312;28;20025;-75
2023/09/21 06:58:16;;;;;;;5.85;2.85;;;17.70;76.80;;;;;;5074236;28;20193;-75
2023/09/21 07:00:42;;;;;;;2.95;2.38;;;17.70;77.00;;;;;;5074393;28;20103;-75
2023/09/21 07:03:10;;;;;;;3.47;2.60;;;17.80;76.70;;;;;;5074064;28;20450;-74
2023/09/21 07:05:36;;;;;;;4.18;3.20;;;17.90;76.60;;;;;;5078238;28;20020;-75
2023/09/21 07:08:01;;;;;;;7.80;3.38;;;18.00;76.80;;;;;;5074493;28;20388;-76
2023/09/21 07:10:27;;;;;;;5.22;3.10;;;18.00;76.70;;;;;;5074152;28;20108;-75
2023/09/21 07:12:53;;;;;;;4.38;2.70;;;18.10;76.50;;;;;;5074056;28;20123;-74
2023/09/21 07:15:19;;;;;;;5.13;2.90;;;18.20;76.10;;;;;;5073598;28;20366;-75
2023/09/21 07:17:46;;;;;;;4.88;3.55;;;18.30;75.70;;;;;;5073597;28;20484;-75
2023/09/21 07:20:12;;;;;;;5.97;3.17;;;18.40;75.20;;;;;;5074231;28;20059;-76
2023/09/21 07:22:38;;;;;;;4.53;3.33;;;18.40;76.10;;;;;;5073249;28;20389;-76
2023/09/21 07:25:03;;;;;;;7.00;3.05;;;18.50;75.10;;;;;;5073870;28;20128;-75
2023/09/21 07:27:29;;;;;;;4.13;3.00;;;18.60;74.70;;;;;;5073381;28;20027;-76
2023/09/21 07:29:56;;;;;;;4.68;3.50;;;18.80;74.40;;;;;;5073774;28;20028;-75
2023/09/21 07:32:25;;;;;;;4.90;3.28;;;18.90;74.00;;;;;;5073311;28;20021;-75
2023/09/21 07:34:51;;;;;;;6.90;3.17;;;19.00;73.40;;;;;;5073784;28;20031;-74
2023/09/21 07:37:16;;;;;;;6.00;2.90;;;19.10;73.30;;;;;;5082360;28;20461;-73
2023/09/21 07:39:42;;;;;;;6.82;3.25;;;19.30;73.20;;;;;;5081981;28;20035;-74
2023/09/21 07:42:09;;;;;;;4.97;2.67;;;19.40;72.60;;;;;;5075323;28;20021;-74
2023/09/21 07:44:35;;;;;;;7.47;2.65;;;19.50;71.90;;;;;;5073578;28;20024;-74
2023/09/21 07:47:00;;;;;;;3.30;2.65;;;19.50;71.80;;;;;;5073651;28;20027;-75
2023/09/21 07:49:26;;;;;;;3.30;2.55;;;19.60;71.70;;;;;;5073496;28;20388;-73
2023/09/21 07:51:55;;;;;;;5.15;2.28;;;19.70;70.90;;;;;;5073476;28;20055;-74
2023/09/21 07:54:21;;;;;;;4.03;2.38;;;19.70;70.00;;;;;;5073141;28;20037;-74
2023/09/21 07:56:48;;;;;;;3.88;2.35;;;19.90;70.20;;;;;;5073060;28;20020;-74
2023/09/21 07:59:15;;;;;;;3.58;2.28;;;20.00;70.10;;;;;;5073162;28;20028;-74
2023/09/21 08:01:41;;;;;;;3.88;2.65;;;20.10;69.90;;;;;;5073000;28;20020;-74
2023/09/21 08:04:07;;;;;;;4.20;2.45;;;20.20;68.80;;;;;;5072869;28;20439;-75
2023/09/21 08:06:33;;;;;;;2.45;2.00;;;20.30;68.30;;;;;;5073188;28;20035;-75
2023/09/21 08:08:59;;;;;;;4.53;2.17;;;20.40;67.70;;;;;;5072975;28;20039;-74
2023/09/21 08:11:25;;;;;;;2.65;2.00;;;20.50;67.10;;;;;;5072493;28;20024;-75
2023/09/21 08:13:50;;;;;;;3.72;2.00;;;20.60;66.10;;;;;;5073739;28;20604;-76
2023/09/21 08:16:17;;;;;;;4.07;2.10;;;20.60;65.80;;;;;;5073527;28;20027;-75
2023/09/21 08:18:44;;;;;;;2.92;2.40;;;20.80;66.40;;;;;;5072543;28;20044;-74
2023/09/21 08:21:10;;;;;;;4.78;2.60;;;21.10;65.20;;;;;;5072612;28;20020;-76
2023/09/21 08:23:36;;;;;;;3.88;2.33;;;21.30;64.90;;;;;;5072808;28;20032;-76
2023/09/21 08:26:04;;;;;;;3.55;2.08;;;21.50;63.70;;;;;;5071215;28;20020;-77
2023/09/21 08:28:30;;;;;;;3.83;2.08;;;21.60;63.10;;;;;;5071411;28;20127;-76
2023/09/21 08:30:57;;;;;;;2.42;1.90;;;21.80;61.80;;;;;;5072279;28;20020;-76
2023/09/21 08:33:23;;;;;;;2.97;2.50;;;21.90;60.70;;;;;;5073431;28;20020;-77
2023/09/21 08:35:48;;;;;;;2.85;1.73;;;22.10;60.60;;;;;;5073454;28;20366;-76
2023/09/21 08:38:17;;;;;;;4.60;1.90;;;22.30;59.70;;;;;;5073255;28;20021;-76
2023/09/21 08:40:44;;;;;;;2.15;1.67;;;22.60;59.00;;;;;;5072053;28;20024;-76
2023/09/21 08:43:16;;;;;;;3.55;1.77;;;22.70;56.00;;;;;;4986982;28;20027;-73
2023/09/21 08:45:42;;;;;;;3.97;2.10;;;22.80;54.90;;;;;;4971847;28;20027;-75
2023/09/21 08:48:08;;;;;;;6.25;1.75;;;22.90;54.70;;;;;;4970516;28;20031;-75
2023/09/21 08:50:36;;;;;;;4.88;4.43;;;23.10;53.00;;;;;;4969763;28;20023;-75
2023/09/21 08:53:03;;;;;;;5.57;2.70;;;23.40;52.50;;;;;;4970581;28;20026;-73
2023/09/21 08:55:29;;;;;;;4.53;2.47;;;23.50;52.50;;;;;;4971384;28;20023;-73
2023/09/21 08:57:56;;;;;;;4.25;1.90;;;23.60;50.40;;;;;;4971440;28;20027;-73
2023/09/21 09:00:27;;;;;;;3.72;2.05;;;23.70;51.60;;;;;;4971391;28;20387;-74
2023/09/21 09:02:53;;;;;;;3.15;1.83;;;23.80;50.40;;;;;;4970715;28;20124;-73
2023/09/21 09:05:19;;;;;;;2.33;1.40;;;23.90;48.80;;;;;;4971358;28;20023;-72
2023/09/21 09:07:45;;;;;;;2.30;1.60;;;23.90;48.90;;;;;;4971206;28;20091;-74
2023/09/21 09:10:12;;;;;;;3.05;2.00;;;23.80;48.40;;;;;;4970433;28;20023;-73
2023/09/21 09:12:39;;;;;;;3.75;2.00;;;23.70;49.00;;;;;;4971266;28;20027;-74
2023/09/21 09:15:06;;;;;;;5.15;3.25;;;23.70;49.70;;;;;;4970015;28;20027;-73
2023/09/21 09:17:32;;;;;;;3.08;2.60;;;23.60;49.70;;;;;;4970907;28;20078;-74
2023/09/21 09:20:01;;;;;;;4.43;2.60;;;23.50;49.50;;;;;;4970864;28;20482;-73
2023/09/21 09:22:27;;;;;;;4.03;2.17;;;23.60;50.00;;;;;;4970924;28;20440;-74
2023/09/21 09:24:53;;;;;;;5.75;2.83;;;23.80;49.90;;;;;;4969808;28;20034;-74
2023/09/21 09:27:19;;;;;;;4.70;2.83;;;24.20;50.30;;;;;;4971022;28;20035;-74
2023/09/21 09:29:54;;;;;;;3.28;2.35;;;24.50;49.60;;;;;;4970794;28;20045;-74
2023/09/21 09:32:20;;;;;;;;;;;24.80;47.30;;;;;;4971434;28;20027;-72
2023/09/21 09:34:47;;;;;;;2.80;2.35;;;24.90;46.40;;;;;;4971007;28;19906;-73
2023/09/21 09:37:15;;;;;;;4.63;2.30;;;24.90;46.20;;;;;;4971075;28;20433;-73
2023/09/21 09:39:45;;;;;;;2.42;2.22;;;25.10;43.60;;;;;;4972889;28;20375;-73
2023/09/21 09:42:12;;;;;;;3.47;2.03;;;25.20;43.40;;;;;;4977418;28;20038;-75
2023/09/21 09:44:47;;;;;;;3.63;1.70;;;25.50;43.70;;;;;;4977845;28;20439;-72
2023/09/21 09:47:16;;;;;;;3.53;2.08;;;25.70;43.00;;;;;;4977352;28;20065;-73
2023/09/21 09:49:49;;;;;;;2.90;1.73;;;26.00;41.30;;;;;;4977282;28;20076;-73
2023/09/21 09:52:18;;;;;;;5.05;2.10;;;26.10;41.30;;;;;;4977318;28;20019;-74
2023/09/21 09:54:47;;;;;;;2.88;2.30;;;26.30;40.70;;;;;;4977239;28;20027;-73
2023/09/21 09:57:13;;;;;;;4.43;2.30;;;26.40;39.60;;;;;;4977268;28;20034;-73
2023/09/21 09:59:41;;;;;;;4.68;2.67;;;26.50;39.40;;;;;;4977427;28;20460;-73
2023/09/21 10:02:14;;;;;;;3.97;2.00;;;26.50;40.80;;;;;;4977328;28;20489;-72
2023/09/21 10:04:41;;;;;;;4.80;2.15;;;26.50;40.00;;;;;;4977229;28;20030;-73
2023/09/21 10:07:08;;;;;;;4.22;2.10;;;26.50;39.30;;;;;;4976832;28;20042;-73
2023/09/21 10:09:34;;;;;;;2.33;1.73;;;26.50;39.80;;;;;;4977141;28;20562;-74
2023/09/21 10:12:03;;;;;;;1.98;1.73;;;26.50;40.40;;;;;;4977006;28;20556;-74
2023/09/21 10:14:36;;;;;;;2.22;1.92;;;26.70;40.30;;;;;;4976910;28;20445;-75
2023/09/21 10:17:04;;;;;;;2.92;1.90;;;27.00;40.10;;;;;;4976845;28;20402;-74
2023/09/21 10:19:36;;;;;;;2.60;1.73;;;27.20;40.10;;;;;;4976959;28;20030;-73
2023/09/21 10:22:21;;;;;;;2.40;1.77;;;27.20;39.70;;;;;;4977128;28;20057;-72
2023/09/21 10:24:53;;;;;;;2.03;1.73;;;27.10;39.50;;;;;;4976922;28;20026;-72
2023/09/21 10:27:24;;;;;;;1.95;1.58;;;27.10;39.80;;;;;;4976902;28;20401;-75
2023/09/21 10:30:00;;;;;;;2.97;1.73;;;27.30;40.10;;;;;;4977034;28;20034;-75
2023/09/21 10:32:41;;;;;;;3.03;1.52;;;27.70;39.60;;;;;;4975666;28;20475;-75
2023/09/21 10:35:08;;;;;;;2.25;1.52;;;28.10;38.10;;;;;;4976958;28;20023;-78
2023/09/21 10:37:34;;;;;;;1.60;1.30;;;28.30;36.70;;;;;;4976886;28;20033;-76
2023/09/21 10:40:00;;;;;;;3.50;1.65;;;28.60;36.10;;;;;;4976606;28;20105;-77
2023/09/21 10:42:33;;;;;;;3.47;1.77;;;28.40;35.80;;;;;;4976360;28;20022;-78
2023/09/21 10:45:00;;;;;;;1.70;1.35;;;28.60;36.70;;;;;;4975604;28;20023;-76
2023/09/21 11:03:10;;;;;;;3.60;2.00;;;28.80;35.70;;;;;;5521702;22;20053;-81
2023/09/21 11:05:35;;;;;;;3.90;1.95;;;28.90;35.00;;;;;;5033604;28;20032;-79
2023/09/21 11:08:02;;;;;;;5.07;1.92;;;29.10;36.30;;;;;;5035060;28;20034;-79
2023/09/21 11:10:28;;;;;;;1.75;1.45;;;29.20;35.70;;;;;;5035119;28;20528;-79
2023/09/21 11:12:54;;;;;;;5.53;1.50;;;29.00;35.20;;;;;;5034839;28;20037;-79
2023/09/21 11:18:43;;;;;;;4.70;1.80;;;28.60;35.70;;;;;;5192385;22;20023;-80
2023/09/21 11:21:16;;;;;;;3.20;1.90;;;28.30;36.10;;;;;;5046015;22;20045;-80
2023/09/21 11:26:11;;;;;;;2.85;1.95;;;28.00;36.70;;;;;;5210861;22;20057;-85
2023/09/21 11:28:37;;;;;;;2.67;1.50;;;28.10;37.90;;;;;;5068620;28;20097;-80
2023/09/21 11:31:05;;;;;;;6.20;1.60;;;28.20;36.40;;;;;;5056850;28;20021;-80
2023/09/21 11:33:34;;;;;;;1.48;1.30;;;28.50;36.20;;;;;;5053499;28;20059;-80
2023/09/21 11:35:59;;;;;;;3.28;1.60;;;28.60;35.70;;;;;;5037382;28;20502;-79
2023/09/21 11:38:25;;;;;;;1.90;1.42;;;28.70;34.40;;;;;;5053689;28;20052;-81
2023/09/21 11:40:52;;;;;;;1.60;1.20;;;28.60;35.30;;;;;;5053120;28;20021;-81
2023/09/21 11:43:17;;;;;;;2.08;1.50;;;28.60;34.90;;;;;;5053205;28;20017;-80
2023/09/21 11:45:46;;;;;;;2.03;1.30;;;28.30;34.70;;;;;;5053077;28;20032;-81
2023/09/21 11:48:12;;;;;;;2.70;1.58;;;28.40;35.40;;;;;;5053206;28;20473;-79
2023/09/21 11:50:39;;;;;;;1.85;1.45;;;28.30;35.00;;;;;;5052888;28;20103;-80
2023/09/21 11:53:08;;;;;;;5.22;1.58;;;28.30;35.20;;;;;;5053203;28;20124;-81
2023/09/21 11:55:36;;;;;;;1.60;1.30;;;28.50;35.20;;;;;;5053130;28;20120;-80
2023/09/21 11:58:16;;;;;;;1.38;0.95;;;28.60;34.80;;;;;;5053416;28;20124;-79
2023/09/21 12:00:51;;;;;;;1.95;1.35;;;28.60;34.30;;;;;;5053269;28;20492;-80
2023/09/21 12:03:18;;;;;;;;;;;28.50;34.70;;;;;;5052654;28;20036;-80
2023/09/21 12:05:43;;;;;;;1.10;1.00;;;28.10;35.20;;;;;;5053247;28;19978;-79
2023/09/21 12:08:13;;;;;;;2.53;1.20;;;27.90;35.00;;;;;;5053402;28;20037;-79
2023/09/21 12:10:45;;;;;;;2.45;1.10;;;27.80;35.10;;;;;;5053117;28;20025;-79
2023/09/21 12:13:14;;;;;;;3.30;1.20;;;27.70;35.20;;;;;;5053057;28;20420;-79
2023/09/21 12:15:41;;;;;;;1.92;1.20;;;27.60;35.60;;;;;;5053437;28;20021;-79
2023/09/21 12:18:07;;;;;;;1.58;1.00;;;27.60;35.40;;;;;;5052842;28;20519;-79
2023/09/21 12:20:34;;;;;;;2.53;1.15;;;27.50;35.30;;;;;;5054561;28;20021;-80
2023/09/21 12:23:00;;;;;;;1.27;1.10;;;27.50;35.60;;;;;;5057976;28;20462;-79
2023/09/21 12:25:26;;;;;;;1.25;0.90;;;27.70;35.40;;;;;;5057748;28;20067;-80
2023/09/21 12:27:52;;;;;;;2.38;1.00;;;27.80;34.60;;;;;;5037653;28;20044;-80
2023/09/21 12:30:20;;;;;;;1.33;1.15;;;28.00;35.50;;;;;;5052795;28;20033;-79
2023/09/21 12:32:46;;;;;;;1.48;0.95;;;28.20;34.80;;;;;;5052671;28;20488;-80
2023/09/21 12:35:12;;;;;;;1.73;1.10;;;28.20;33.60;;;;;;5052520;28;20032;-79
2023/09/21 12:37:42;;;;;;;1.33;1.20;;;28.30;33.50;;;;;;5052523;28;20496;-80
2023/09/21 12:40:11;;;;;;;1.17;0.90;;;28.20;34.30;;;;;;5052535;28;20028;-80
2023/09/21 12:42:43;;;;;;;0.73;0.73;;;28.00;34.60;;;;;;5035676;28;20052;-78
2023/09/21 12:45:12;;;;;;;0.88;0.80;;;28.00;34.80;;;;;;5052146;28;20078;-80
2023/09/21 12:47:40;;;;;;;2.85;0.70;;;27.90;33.90;;;;;;5052900;28;20039;-80
2023/09/21 12:50:18;;;;;;;1.63;0.85;;;27.80;32.30;;;;;;5055179;28;20021;-78
2023/09/21 12:52:44;;;;;;;1.17;0.80;;;27.60;32.50;;;;;;5052404;28;20048;-79
2023/09/21 12:55:11;;;;;;;0.80;0.80;;;27.50;32.70;;;;;;5053781;28;20036;-80
2023/09/21 12:57:41;;;;;;;0.95;0.75;;;27.40;33.50;;;;;;5053373;28;20544;-80
2023/09/21 13:00:10;;;;;;;3.92;1.17;;;27.40;34.20;;;;;;5052101;28;20025;-80
2023/09/21 13:02:37;;;;;;;1.08;0.85;;;27.40;34.80;;;;;;5052259;28;20378;-79
2023/09/21 13:05:04;;;;;;;3.40;0.80;;;27.50;35.00;;;;;;5051851;28;20117;-79
2023/09/21 13:07:29;;;;;;;0.77;0.70;;;27.70;33.50;;;;;;5052274;28;20497;-80
2023/09/21 13:09:57;;;;;;;1.00;0.90;;;27.90;33.90;;;;;;5035601;28;20033;-80
2023/09/21 13:12:23;;;;;;;1.05;0.57;;;28.10;33.50;;;;;;5051897;28;20055;-80